Aviation Digital Data Service (ADDS)

Output produced by METARs form (2133 UTC 17 June 2019)
found at http://www.aviationweather.gov/metar/data/
 
METAR text: OEJN 172100Z 36006KT 9999 FEW040 32/20 Q1007 NOSIG
Conditions at: OEJN (JEDDAH/KING ABDU, SA) observed 2100 UTC 17 June 2019
Temperature: 32.0°C (90°F)
Dewpoint: 20.0°C (68°F) [RH = 49%]
Pressure (altimeter): 29.73 inches Hg (1007.0 mb)
Winds: from the N (360 degrees) at 7 MPH (6 knots; 3.1 m/s)
Visibility: 6 or more miles (10+ km)
Ceiling: at least 12,000 feet AGL
Clouds: few clouds at 4000 feet AGL
Weather: no significant weather observed at this time

METAR text: OEJN 172000Z 36010KT 9999 FEW040 32/20 Q1007 NOSIG
Conditions at: OEJN (JEDDAH/KING ABDU, SA) observed 2000 UTC 17 June 2019
Temperature: 32.0°C (90°F)
Dewpoint: 20.0°C (68°F) [RH = 49%]
Pressure (altimeter): 29.73 inches Hg (1007.0 mb)
Winds: from the N (360 degrees) at 12 MPH (10 knots; 5.1 m/s)
Visibility: 6 or more miles (10+ km)
Ceiling: at least 12,000 feet AGL
Clouds: few clouds at 4000 feet AGL
Weather: no significant weather observed at this time

METAR text: OEJN 171900Z 36010KT 9999 SCT040 32/20 Q1007 NOSIG
Conditions at: OEJN (JEDDAH/KING ABDU, SA) observed 1900 UTC 17 June 2019
Temperature: 32.0°C (90°F)
Dewpoint: 20.0°C (68°F) [RH = 49%]
Pressure (altimeter): 29.73 inches Hg (1007.0 mb)
Winds: from the N (360 degrees) at 12 MPH (10 knots; 5.1 m/s)
Visibility: 6 or more miles (10+ km)
Ceiling: at least 12,000 feet AGL
Clouds: scattered clouds at 4000 feet AGL
Weather: no significant weather observed at this time

METAR text: OEJN 171800Z 36012KT 9999 SCT040 32/19 Q1007 NOSIG
Conditions at: OEJN (JEDDAH/KING ABDU, SA) observed 1800 UTC 17 June 2019
Temperature: 32.0°C (90°F)
Dewpoint: 19.0°C (66°F) [RH = 46%]
Pressure (altimeter): 29.73 inches Hg (1007.0 mb)
Winds: from the N (360 degrees) at 14 MPH (12 knots; 6.2 m/s)
Visibility: 6 or more miles (10+ km)
Ceiling: at least 12,000 feet AGL
Clouds: scattered clouds at 4000 feet AGL
Weather: no significant weather observed at this time

METAR text: OEJN 171700Z 35014KT 9999 FEW040 32/20 Q1007 NOSIG
Conditions at: OEJN (JEDDAH/KING ABDU, SA) observed 1700 UTC 17 June 2019
Temperature: 32.0°C (90°F)
Dewpoint: 20.0°C (68°F) [RH = 49%]
Pressure (altimeter): 29.73 inches Hg (1007.0 mb)
Winds: from the N (350 degrees) at 16 MPH (14 knots; 7.2 m/s)
Visibility: 6 or more miles (10+ km)
Ceiling: at least 12,000 feet AGL
Clouds: few clouds at 4000 feet AGL
Weather: no significant weather observed at this time

METAR text: OEJN 171600Z 33014KT 9999 FEW040 34/18 Q1006 NOSIG
Conditions at: OEJN (JEDDAH/KING ABDU, SA) observed 1600 UTC 17 June 2019
Temperature: 34.0°C (93°F)
Dewpoint: 18.0°C (64°F) [RH = 39%]
Pressure (altimeter): 29.70 inches Hg (1006.0 mb)
Winds: from the NNW (330 degrees) at 16 MPH (14 knots; 7.2 m/s)
Visibility: 6 or more miles (10+ km)
Ceiling: at least 12,000 feet AGL
Clouds: few clouds at 4000 feet AGL
Weather: no significant weather observed at this time

METAR text: OEJN 171500Z 33016KT 9999 FEW040 SCT100 35/17 Q1006 NOSIG
Conditions at: OEJN (JEDDAH/KING ABDU, SA) observed 1500 UTC 17 June 2019
Temperature: 35.0°C (95°F)
Dewpoint: 17.0°C (63°F) [RH = 34%]
Pressure (altimeter): 29.70 inches Hg (1006.0 mb)
Winds: from the NNW (330 degrees) at 18 MPH (16 knots; 8.2 m/s)
Visibility: 6 or more miles (10+ km)
Ceiling: at least 12,000 feet AGL
Clouds: few clouds at 4000 feet AGL
scattered clouds at 10000 feet AGL
Weather: no significant weather observed at this time

METAR text: OEJN 171400Z 33018KT 9999 FEW040 SCT100 36/17 Q1006 NOSIG
Conditions at: OEJN (JEDDAH/KING ABDU, SA) observed 1400 UTC 17 June 2019
Temperature: 36.0°C (97°F)
Dewpoint: 17.0°C (63°F) [RH = 33%]
Pressure (altimeter): 29.70 inches Hg (1006.0 mb)
Winds: from the NNW (330 degrees) at 21 MPH (18 knots; 9.3 m/s)
Visibility: 6 or more miles (10+ km)
Ceiling: at least 12,000 feet AGL
Clouds: few clouds at 4000 feet AGL
scattered clouds at 10000 feet AGL
Weather: no significant weather observed at this time

METAR text: OEJN 171300Z 33015KT 9999 FEW040 36/19 Q1006 NOSIG
Conditions at: OEJN (JEDDAH/KING ABDU, SA) observed 1300 UTC 17 June 2019
Temperature: 36.0°C (97°F)
Dewpoint: 19.0°C (66°F) [RH = 37%]
Pressure (altimeter): 29.70 inches Hg (1006.0 mb)
Winds: from the NNW (330 degrees) at 17 MPH (15 knots; 7.7 m/s)
Visibility: 6 or more miles (10+ km)
Ceiling: at least 12,000 feet AGL
Clouds: few clouds at 4000 feet AGL
Weather: no significant weather observed at this time

METAR text: OEJN 171200Z 34018KT CAVOK 36/19 Q1006 NOSIG
Conditions at: OEJN (JEDDAH/KING ABDU, SA) observed 1200 UTC 17 June 2019
Temperature: 36.0°C (97°F)
Dewpoint: 19.0°C (66°F) [RH = 37%]
Pressure (altimeter): 29.70 inches Hg (1006.0 mb)
Winds: from the NNW (340 degrees) at 21 MPH (18 knots; 9.3 m/s)
Visibility: 6 or more miles (10+ km)
Ceiling: ceiling and visibility are OK
Clouds: unknown
Weather: no significant weather observed at this time

METAR text: OEJN 171100Z 35018KT CAVOK 37/18 Q1007 NOSIG
Conditions at: OEJN (JEDDAH/KING ABDU, SA) observed 1100 UTC 17 June 2019
Temperature: 37.0°C (99°F)
Dewpoint: 18.0°C (64°F) [RH = 33%]
Pressure (altimeter): 29.73 inches Hg (1007.0 mb)
Winds: from the N (350 degrees) at 21 MPH (18 knots; 9.3 m/s)
Visibility: 6 or more miles (10+ km)
Ceiling: ceiling and visibility are OK
Clouds: unknown
Weather: no significant weather observed at this time

METAR text: OEJN 171000Z 30015KT CAVOK 37/19 Q1008 NOSIG
Conditions at: OEJN (JEDDAH/KING ABDU, SA) observed 1000 UTC 17 June 2019
Temperature: 37.0°C (99°F)
Dewpoint: 19.0°C (66°F) [RH = 35%]
Pressure (altimeter): 29.76 inches Hg (1008.0 mb)
Winds: from the WNW (300 degrees) at 17 MPH (15 knots; 7.7 m/s)
Visibility: 6 or more miles (10+ km)
Ceiling: ceiling and visibility are OK
Clouds: unknown
Weather: no significant weather observed at this time

METAR text: OEJN 170900Z 34014KT CAVOK 37/18 Q1008 NOSIG
Conditions at: OEJN (JEDDAH/KING ABDU, SA) observed 0900 UTC 17 June 2019
Temperature: 37.0°C (99°F)
Dewpoint: 18.0°C (64°F) [RH = 33%]
Pressure (altimeter): 29.76 inches Hg (1008.0 mb)
Winds: from the NNW (340 degrees) at 16 MPH (14 knots; 7.2 m/s)
Visibility: 6 or more miles (10+ km)
Ceiling: ceiling and visibility are OK
Clouds: unknown
Weather: no significant weather observed at this time

METAR text: OEJN 170800Z 33015KT CAVOK 36/18 Q1008 NOSIG
Conditions at: OEJN (JEDDAH/KING ABDU, SA) observed 0800 UTC 17 June 2019
Temperature: 36.0°C (97°F)
Dewpoint: 18.0°C (64°F) [RH = 35%]
Pressure (altimeter): 29.76 inches Hg (1008.0 mb)
Winds: from the NNW (330 degrees) at 17 MPH (15 knots; 7.7 m/s)
Visibility: 6 or more miles (10+ km)
Ceiling: ceiling and visibility are OK
Clouds: unknown
Weather: no significant weather observed at this time

METAR text: OEJN 170700Z 33014KT CAVOK 35/17 Q1008 NOSIG
Conditions at: OEJN (JEDDAH/KING ABDU, SA) observed 0700 UTC 17 June 2019
Temperature: 35.0°C (95°F)
Dewpoint: 17.0°C (63°F) [RH = 34%]
Pressure (altimeter): 29.76 inches Hg (1008.0 mb)
Winds: from the NNW (330 degrees) at 16 MPH (14 knots; 7.2 m/s)
Visibility: 6 or more miles (10+ km)
Ceiling: ceiling and visibility are OK
Clouds: unknown
Weather: no significant weather observed at this time

METAR text: OEJN 170600Z 34014KT CAVOK 33/18 Q1008 NOSIG
Conditions at: OEJN (JEDDAH/KING ABDU, SA) observed 0600 UTC 17 June 2019
Temperature: 33.0°C (91°F)
Dewpoint: 18.0°C (64°F) [RH = 41%]
Pressure (altimeter): 29.76 inches Hg (1008.0 mb)
Winds: from the NNW (340 degrees) at 16 MPH (14 knots; 7.2 m/s)
Visibility: 6 or more miles (10+ km)
Ceiling: ceiling and visibility are OK
Clouds: unknown
Weather: no significant weather observed at this time

METAR text: OEJN 170500Z 36008KT CAVOK 31/18 Q1008 NOSIG
Conditions at: OEJN (JEDDAH/KING ABDU, SA) observed 0500 UTC 17 June 2019
Temperature: 31.0°C (88°F)
Dewpoint: 18.0°C (64°F) [RH = 46%]
Pressure (altimeter): 29.76 inches Hg (1008.0 mb)
Winds: from the N (360 degrees) at 9 MPH (8 knots; 4.1 m/s)
Visibility: 6 or more miles (10+ km)
Ceiling: ceiling and visibility are OK
Clouds: unknown
Weather: no significant weather observed at this time

METAR text: OEJN 170400Z 33004KT CAVOK 28/19 Q1007 NOSIG
Conditions at: OEJN (JEDDAH/KING ABDU, SA) observed 0400 UTC 17 June 2019
Temperature: 28.0°C (82°F)
Dewpoint: 19.0°C (66°F) [RH = 58%]
Pressure (altimeter): 29.73 inches Hg (1007.0 mb)
Winds: from the NNW (330 degrees) at 5 MPH (4 knots; 2.1 m/s)
Visibility: 6 or more miles (10+ km)
Ceiling: ceiling and visibility are OK
Clouds: unknown
Weather: no significant weather observed at this time

METAR text: OEJN 170300Z 36004KT CAVOK 27/18 Q1006 NOSIG
Conditions at: OEJN (JEDDAH/KING ABDU, SA) observed 0300 UTC 17 June 2019
Temperature: 27.0°C (81°F)
Dewpoint: 18.0°C (64°F) [RH = 58%]
Pressure (altimeter): 29.70 inches Hg (1006.0 mb)
Winds: from the N (360 degrees) at 5 MPH (4 knots; 2.1 m/s)
Visibility: 6 or more miles (10+ km)
Ceiling: ceiling and visibility are OK
Clouds: unknown
Weather: no significant weather observed at this time

METAR text: OEJN 170200Z 36004KT CAVOK 27/19 Q1006 NOSIG
Conditions at: OEJN (JEDDAH/KING ABDU, SA) observed 0200 UTC 17 June 2019
Temperature: 27.0°C (81°F)
Dewpoint: 19.0°C (66°F) [RH = 62%]
Pressure (altimeter): 29.70 inches Hg (1006.0 mb)
Winds: from the N (360 degrees) at 5 MPH (4 knots; 2.1 m/s)
Visibility: 6 or more miles (10+ km)
Ceiling: ceiling and visibility are OK
Clouds: unknown
Weather: no significant weather observed at this time

METAR text: OEJN 170100Z 33006KT CAVOK 28/17 Q1006 NOSIG
Conditions at: OEJN (JEDDAH/KING ABDU, SA) observed 0100 UTC 17 June 2019
Temperature: 28.0°C (82°F)
Dewpoint: 17.0°C (63°F) [RH = 51%]
Pressure (altimeter): 29.70 inches Hg (1006.0 mb)
Winds: from the NNW (330 degrees) at 7 MPH (6 knots; 3.1 m/s)
Visibility: 6 or more miles (10+ km)
Ceiling: ceiling and visibility are OK
Clouds: unknown
Weather: no significant weather observed at this time

METAR text: OEJN 170000Z 33006KT CAVOK 28/17 Q1005 NOSIG
Conditions at: OEJN (JEDDAH/KING ABDU, SA) observed 0000 UTC 17 June 2019
Temperature: 28.0°C (82°F)
Dewpoint: 17.0°C (63°F) [RH = 51%]
Pressure (altimeter): 29.68 inches Hg (1005.0 mb)
Winds: from the NNW (330 degrees) at 7 MPH (6 knots; 3.1 m/s)
Visibility: 6 or more miles (10+ km)
Ceiling: ceiling and visibility are OK
Clouds: unknown
Weather: no significant weather observed at this time

METAR text: OEJN 162300Z 33004KT CAVOK 30/17 Q1006 NOSIG
Conditions at: OEJN (JEDDAH/KING ABDU, SA) observed 2300 UTC 16 June 2019
Temperature: 30.0°C (86°F)
Dewpoint: 17.0°C (63°F) [RH = 46%]
Pressure (altimeter): 29.70 inches Hg (1006.0 mb)
Winds: from the NNW (330 degrees) at 5 MPH (4 knots; 2.1 m/s)
Visibility: 6 or more miles (10+ km)
Ceiling: ceiling and visibility are OK
Clouds: unknown
Weather: no significant weather observed at this time

METAR text: OEJN 162200Z 36004KT CAVOK 30/17 Q1006 NOSIG
Conditions at: OEJN (JEDDAH/KING ABDU, SA) observed 2200 UTC 16 June 2019
Temperature: 30.0°C (86°F)
Dewpoint: 17.0°C (63°F) [RH = 46%]
Pressure (altimeter): 29.70 inches Hg (1006.0 mb)
Winds: from the N (360 degrees) at 5 MPH (4 knots; 2.1 m/s)
Visibility: 6 or more miles (10+ km)
Ceiling: ceiling and visibility are OK
Clouds: unknown
Weather: no significant weather observed at this time

METAR text: OEJN 162100Z 36010KT CAVOK 31/19 Q1007 NOSIG
Conditions at: OEJN (JEDDAH/KING ABDU, SA) observed 2100 UTC 16 June 2019
Temperature: 31.0°C (88°F)
Dewpoint: 19.0°C (66°F) [RH = 49%]
Pressure (altimeter): 29.73 inches Hg (1007.0 mb)
Winds: from the N (360 degrees) at 12 MPH (10 knots; 5.1 m/s)
Visibility: 6 or more miles (10+ km)
Ceiling: ceiling and visibility are OK
Clouds: unknown
Weather: no significant weather observed at this time

METAR text: OEJN 162000Z 36006KT CAVOK 31/18 Q1007 NOSIG
Conditions at: OEJN (JEDDAH/KING ABDU, SA) observed 2000 UTC 16 June 2019
Temperature: 31.0°C (88°F)
Dewpoint: 18.0°C (64°F) [RH = 46%]
Pressure (altimeter): 29.73 inches Hg (1007.0 mb)
Winds: from the N (360 degrees) at 7 MPH (6 knots; 3.1 m/s)
Visibility: 6 or more miles (10+ km)
Ceiling: ceiling and visibility are OK
Clouds: unknown
Weather: no significant weather observed at this time

METAR text: OEJN 161900Z 35008KT CAVOK 32/19 Q1007 NOSIG
Conditions at: OEJN (JEDDAH/KING ABDU, SA) observed 1900 UTC 16 June 2019
Temperature: 32.0°C (90°F)
Dewpoint: 19.0°C (66°F) [RH = 46%]
Pressure (altimeter): 29.73 inches Hg (1007.0 mb)
Winds: from the N (350 degrees) at 9 MPH (8 knots; 4.1 m/s)
Visibility: 6 or more miles (10+ km)
Ceiling: ceiling and visibility are OK
Clouds: unknown
Weather: no significant weather observed at this time

METAR text: OEJN 161800Z 01009KT 9999 FEW040 32/19 Q1007 NOSIG
Conditions at: OEJN (JEDDAH/KING ABDU, SA) observed 1800 UTC 16 June 2019
Temperature: 32.0°C (90°F)
Dewpoint: 19.0°C (66°F) [RH = 46%]
Pressure (altimeter): 29.73 inches Hg (1007.0 mb)
Winds: from the N (10 degrees) at 10 MPH (9 knots; 4.6 m/s)
Visibility: 6 or more miles (10+ km)
Ceiling: at least 12,000 feet AGL
Clouds: few clouds at 4000 feet AGL
Weather: no significant weather observed at this time

METAR text: OEJN 161700Z 35010KT 9999 FEW040 33/18 Q1007 NOSIG
Conditions at: OEJN (JEDDAH/KING ABDU, SA) observed 1700 UTC 16 June 2019
Temperature: 33.0°C (91°F)
Dewpoint: 18.0°C (64°F) [RH = 41%]
Pressure (altimeter): 29.73 inches Hg (1007.0 mb)
Winds: from the N (350 degrees) at 12 MPH (10 knots; 5.1 m/s)
Visibility: 6 or more miles (10+ km)
Ceiling: at least 12,000 feet AGL
Clouds: few clouds at 4000 feet AGL
Weather: no significant weather observed at this time

METAR text: OEJN 161600Z 34012KT 9999 FEW040 34/19 Q1006 NOSIG
Conditions at: OEJN (JEDDAH/KING ABDU, SA) observed 1600 UTC 16 June 2019
Temperature: 34.0°C (93°F)
Dewpoint: 19.0°C (66°F) [RH = 41%]
Pressure (altimeter): 29.70 inches Hg (1006.0 mb)
Winds: from the NNW (340 degrees) at 14 MPH (12 knots; 6.2 m/s)
Visibility: 6 or more miles (10+ km)
Ceiling: at least 12,000 feet AGL
Clouds: few clouds at 4000 feet AGL
Weather: no significant weather observed at this time

METAR text: OEJN 161500Z 33013KT 9999 FEW040 35/19 Q1005 NOSIG
Conditions at: OEJN (JEDDAH/KING ABDU, SA) observed 1500 UTC 16 June 2019
Temperature: 35.0°C (95°F)
Dewpoint: 19.0°C (66°F) [RH = 39%]
Pressure (altimeter): 29.68 inches Hg (1005.0 mb)
Winds: from the NNW (330 degrees) at 15 MPH (13 knots; 6.7 m/s)
Visibility: 6 or more miles (10+ km)
Ceiling: at least 12,000 feet AGL
Clouds: few clouds at 4000 feet AGL
Weather: no significant weather observed at this time

METAR text: OEJN 161400Z 33015KT 9999 FEW040 36/19 Q1006 NOSIG
Conditions at: OEJN (JEDDAH/KING ABDU, SA) observed 1400 UTC 16 June 2019
Temperature: 36.0°C (97°F)
Dewpoint: 19.0°C (66°F) [RH = 37%]
Pressure (altimeter): 29.70 inches Hg (1006.0 mb)
Winds: from the NNW (330 degrees) at 17 MPH (15 knots; 7.7 m/s)
Visibility: 6 or more miles (10+ km)
Ceiling: at least 12,000 feet AGL
Clouds: few clouds at 4000 feet AGL
Weather: no significant weather observed at this time

METAR text: OEJN 161300Z 34013KT CAVOK 36/19 Q1006 NOSIG
Conditions at: OEJN (JEDDAH/KING ABDU, SA) observed 1300 UTC 16 June 2019
Temperature: 36.0°C (97°F)
Dewpoint: 19.0°C (66°F) [RH = 37%]
Pressure (altimeter): 29.70 inches Hg (1006.0 mb)
Winds: from the NNW (340 degrees) at 15 MPH (13 knots; 6.7 m/s)
Visibility: 6 or more miles (10+ km)
Ceiling: ceiling and visibility are OK
Clouds: unknown
Weather: no significant weather observed at this time

METAR text: OEJN 161200Z 32015KT CAVOK 36/18 Q1006 NOSIG
Conditions at: OEJN (JEDDAH/KING ABDU, SA) observed 1200 UTC 16 June 2019
Temperature: 36.0°C (97°F)
Dewpoint: 18.0°C (64°F) [RH = 35%]
Pressure (altimeter): 29.70 inches Hg (1006.0 mb)
Winds: from the NW (320 degrees) at 17 MPH (15 knots; 7.7 m/s)
Visibility: 6 or more miles (10+ km)
Ceiling: ceiling and visibility are OK
Clouds: unknown
Weather: no significant weather observed at this time

METAR text: OEJN 161100Z 35015KT 9999 FEW040 38/17 Q1006 NOSIG
Conditions at: OEJN (JEDDAH/KING ABDU, SA) observed 1100 UTC 16 June 2019
Temperature: 38.0°C (100°F)
Dewpoint: 17.0°C (63°F) [RH = 29%]
Pressure (altimeter): 29.70 inches Hg (1006.0 mb)
Winds: from the N (350 degrees) at 17 MPH (15 knots; 7.7 m/s)
Visibility: 6 or more miles (10+ km)
Ceiling: at least 12,000 feet AGL
Clouds: few clouds at 4000 feet AGL
Weather: no significant weather observed at this time

METAR text: OEJN 161000Z 33014KT 9999 SCT040 SCT100 36/18 Q1007 NOSIG
Conditions at: OEJN (JEDDAH/KING ABDU, SA) observed 1000 UTC 16 June 2019
Temperature: 36.0°C (97°F)
Dewpoint: 18.0°C (64°F) [RH = 35%]
Pressure (altimeter): 29.73 inches Hg (1007.0 mb)
Winds: from the NNW (330 degrees) at 16 MPH (14 knots; 7.2 m/s)
Visibility: 6 or more miles (10+ km)
Ceiling: at least 12,000 feet AGL
Clouds: scattered clouds at 4000 feet AGL
scattered clouds at 10000 feet AGL
Weather: no significant weather observed at this time

Forecast for: OEJN (JEDDAH/KING ABDU, SA)
Text: TAF OEJN 171700Z 1718/1824 02008KT 9999 FEW040
Forecast period: 1800 UTC 17 June 2019 to 0600 UTC 18 June 2019
Forecast type: FROM: standard forecast or significant change
Winds: from the NNE (20 degrees) at 9 MPH (8 knots; 4.1 m/s)
Visibility: 6 or more miles 10+ km)
Ceiling: at least 12,000 feet AGL
Clouds: few clouds at 4000 feet AGL
Weather: no significant weather forecast for this period
Text: BECMG 1806/1808 33014KT
Forecast period: 0600 UTC 18 June 2019 to 0000 UTC 19 June 2019
Forecast type: BECOMING: Conditions expected to become as follows by 0800 UTC 18 June 2019
Winds: from the NNW (330 degrees) at 16 MPH (14 knots; 7.2 m/s)
Visibility: 6 or more miles 10+ km)
Ceiling: at least 12,000 feet AGL
Clouds: few clouds at 4000 feet AGL
Weather: no significant weather forecast for this period